createdAt,value
2022-11-30T00:02:03.039Z,67.01
2022-11-30T00:04:31.626Z,67.15
2022-11-30T00:07:00.049Z,67.21
2022-11-30T00:09:27.905Z,67.30
2022-11-30T00:11:57.524Z,67.05
2022-11-30T00:14:25.982Z,67.02
2022-11-30T00:16:54.322Z,67.35
2022-11-30T00:19:22.575Z,67.23
2022-11-30T00:21:50.648Z,67.65
2022-11-30T00:24:18.574Z,67.03
2022-11-30T00:26:47.064Z,67.07
2022-11-30T00:29:16.760Z,67.45
2022-11-30T00:31:44.554Z,67.13
2022-11-30T00:34:12.901Z,67.25
2022-11-30T00:36:40.821Z,67.12
2022-11-30T00:39:09.117Z,67.14
2022-11-30T00:41:37.033Z,67.48
2022-11-30T00:44:05.529Z,67.57
2022-11-30T00:46:34.886Z,67.45
2022-11-30T00:49:03.293Z,67.91
2022-11-30T00:51:31.606Z,67.56
2022-11-30T00:53:59.428Z,67.17
2022-11-30T00:56:27.821Z,67.50
2022-11-30T00:58:56.194Z,66.83
2022-11-30T01:01:24.166Z,67.31
2022-11-30T01:03:53.645Z,67.40
2022-11-30T01:06:21.945Z,67.25
2022-11-30T01:08:49.911Z,67.36
2022-11-30T01:11:26.054Z,67.33
2022-11-30T01:13:55.180Z,67.47
2022-11-30T01:16:27.209Z,66.88
2022-11-30T01:18:58.043Z,67.25
2022-11-30T01:21:27.924Z,66.79
2022-11-30T01:23:56.084Z,66.94
2022-11-30T01:26:25.222Z,67.33
2022-11-30T01:28:54.804Z,67.22
2022-11-30T01:31:25.229Z,67.29
2022-11-30T01:33:54.767Z,67.03
2022-11-30T01:36:27.253Z,66.97
2022-11-30T01:38:57.780Z,67.35
2022-11-30T01:41:28.161Z,67.06
2022-11-30T01:43:58.700Z,67.15
2022-11-30T01:46:35.937Z,67.22
2022-11-30T01:49:16.216Z,66.89
2022-11-30T01:51:48.116Z,66.98
2022-11-30T01:54:21.550Z,66.58
2022-11-30T01:56:54.109Z,67.05
2022-11-30T01:59:24.306Z,66.84
2022-11-30T02:01:53.260Z,67.34
2022-11-30T02:04:26.064Z,66.68
2022-11-30T02:06:58.250Z,66.90
2022-11-30T02:09:29.040Z,66.79
2022-11-30T02:11:58.490Z,66.85
2022-11-30T02:14:35.098Z,66.87
2022-11-30T02:17:12.839Z,67.18
2022-11-30T02:20:17.768Z,67.41
2022-11-30T02:23:04.852Z,66.93
2022-11-30T02:25:41.829Z,66.83
2022-11-30T02:28:26.692Z,66.97
2022-11-30T02:30:59.587Z,66.62
2022-11-30T02:33:31.581Z,67.46
2022-11-30T02:36:02.401Z,67.22
2022-11-30T02:38:31.410Z,67.50
2022-11-30T02:40:59.265Z,67.04
2022-11-30T02:43:31.657Z,67.12
2022-11-30T02:46:07.599Z,67.58
2022-11-30T02:48:45.078Z,67.33
2022-11-30T02:51:19.069Z,67.26
2022-11-30T02:53:48.656Z,67.21
2022-11-30T02:56:17.365Z,67.03
2022-11-30T02:58:45.213Z,67.61
2022-11-30T03:01:15.189Z,67.06
2022-11-30T03:03:43.588Z,67.04
2022-11-30T03:06:11.502Z,66.86
2022-11-30T03:08:39.890Z,66.91
2022-11-30T03:11:07.991Z,67.35
2022-11-30T03:13:36.129Z,67.50
2022-11-30T03:16:08.662Z,67.56
2022-11-30T03:18:39.234Z,67.16
2022-11-30T03:21:08.856Z,67.47
2022-11-30T03:23:37.087Z,67.54
2022-11-30T03:26:06.518Z,67.61
2022-11-30T03:28:34.790Z,67.73
2022-11-30T03:31:02.854Z,67.74
2022-11-30T03:33:31.176Z,67.57
2022-11-30T03:36:06.113Z,67.54
2022-11-30T03:38:35.261Z,67.31
2022-11-30T03:41:04.692Z,67.62
2022-11-30T03:43:32.736Z,67.71
2022-11-30T03:46:01.572Z,67.83
2022-11-30T03:48:29.996Z,67.21
2022-11-30T03:50:58.195Z,67.35
2022-11-30T03:53:28.350Z,67.38
2022-11-30T03:55:58.691Z,67.53
2022-11-30T03:58:27.051Z,67.75
2022-11-30T04:01:01.681Z,67.58
2022-11-30T04:03:30.936Z,67.40
2022-11-30T04:05:59.505Z,67.75
2022-11-30T04:08:30.848Z,67.29
2022-11-30T04:11:00.836Z,67.38
2022-11-30T04:13:30.078Z,67.39
2022-11-30T04:15:58.592Z,67.90
2022-11-30T04:18:29.084Z,67.33
2022-11-30T04:20:59.013Z,67.23
2022-11-30T04:23:32.501Z,67.32
2022-11-30T04:26:01.031Z,67.33
2022-11-30T04:28:29.221Z,67.45
2022-11-30T04:30:57.267Z,67.76
2022-11-30T04:33:25.726Z,67.07
2022-11-30T04:35:57.393Z,67.32
2022-11-30T04:38:26.357Z,67.58
2022-11-30T04:40:56.553Z,67.47
2022-11-30T04:43:24.876Z,67.34
2022-11-30T04:45:53.461Z,67.51
2022-11-30T04:48:22.065Z,67.76
2022-11-30T04:50:50.960Z,67.72
2022-11-30T04:53:19.300Z,67.57
2022-11-30T04:55:47.221Z,66.76
2022-11-30T04:58:16.468Z,67.82
2022-11-30T05:00:44.703Z,67.67
2022-11-30T05:03:12.969Z,67.03
2022-11-30T05:05:40.948Z,67.07
2022-11-30T05:08:09.298Z,66.75
2022-11-30T05:10:37.538Z,67.59
2022-11-30T05:13:05.477Z,67.42
2022-11-30T05:15:35.395Z,67.37
2022-11-30T05:18:03.987Z,67.68
2022-11-30T05:20:32.097Z,67.49
2022-11-30T05:23:00.302Z,67.33
2022-11-30T05:25:28.417Z,67.70
2022-11-30T05:27:56.311Z,67.55
2022-11-30T05:30:24.622Z,67.42
2022-11-30T05:32:55.721Z,67.71
2022-11-30T05:35:23.690Z,67.37
2022-11-30T05:37:52.128Z,67.67
2022-11-30T05:40:20.418Z,67.27
2022-11-30T05:42:48.267Z,67.29
2022-11-30T05:45:16.753Z,67.68
2022-11-30T05:47:45.011Z,66.91
2022-11-30T05:50:14.408Z,67.33
2022-11-30T05:52:42.776Z,67.33
2022-11-30T05:55:11.232Z,67.25
2022-11-30T05:57:40.222Z,67.74
2022-11-30T06:00:10.905Z,67.13
2022-11-30T06:02:39.352Z,67.23
2022-11-30T06:05:08.386Z,67.23
2022-11-30T06:07:38.243Z,67.41
2022-11-30T06:10:07.225Z,68.06
2022-11-30T06:12:35.371Z,67.95
2022-11-30T06:15:03.933Z,68.00
2022-11-30T06:17:32.290Z,68.24
2022-11-30T06:20:00.202Z,67.85
2022-11-30T06:22:28.433Z,68.19
2022-11-30T06:24:58.305Z,68.34
2022-11-30T06:27:26.240Z,67.98
2022-11-30T06:29:54.638Z,68.49
2022-11-30T06:32:23.075Z,68.36
2022-11-30T06:34:51.035Z,67.71
2022-11-30T06:37:19.364Z,67.88
2022-11-30T06:42:37.597Z,68.10
2022-11-30T06:45:07.100Z,67.58
2022-11-30T06:47:35.224Z,67.16
2022-11-30T06:50:03.616Z,67.67
2022-11-30T06:52:33.203Z,67.40
2022-11-30T06:55:01.062Z,67.73
2022-11-30T06:57:30.043Z,67.67
2022-11-30T06:59:59.962Z,67.96
2022-11-30T07:02:27.715Z,67.84
2022-11-30T07:04:58.234Z,67.89
2022-11-30T07:07:26.371Z,68.19
2022-11-30T07:09:56.802Z,67.78
2022-11-30T07:12:25.037Z,68.22
2022-11-30T07:14:56.720Z,67.87
2022-11-30T07:17:26.508Z,68.21
2022-11-30T07:19:54.260Z,67.78
2022-11-30T07:22:22.086Z,67.78
2022-11-30T07:25:07.383Z,68.24
2022-11-30T07:27:35.683Z,68.08
2022-11-30T07:30:03.336Z,67.61
2022-11-30T07:32:32.398Z,68.24
2022-11-30T07:35:00.269Z,68.27
2022-11-30T07:37:27.982Z,68.21
2022-11-30T07:39:56.278Z,67.68
2022-11-30T07:42:24.005Z,68.47
2022-11-30T07:44:58.193Z,68.07
2022-11-30T07:47:26.663Z,68.24
2022-11-30T07:49:56.033Z,68.02
2022-11-30T07:52:25.417Z,68.29
2022-11-30T07:54:53.071Z,68.57
2022-11-30T07:57:20.952Z,68.18
2022-11-30T07:59:49.246Z,68.29
2022-11-30T08:02:17.480Z,68.48
2022-11-30T08:04:45.803Z,68.03
2022-11-30T08:07:15.545Z,67.95
2022-11-30T08:09:45.019Z,68.40
2022-11-30T08:12:12.963Z,68.33
2022-11-30T08:15:11.154Z,67.93
2022-11-30T08:17:28.981Z,68.74
2022-11-30T08:19:56.796Z,68.63
2022-11-30T08:22:26.130Z,68.27
2022-11-30T08:24:54.334Z,68.12
2022-11-30T08:27:22.261Z,68.72
2022-11-30T08:29:50.431Z,67.90
2022-11-30T08:32:18.171Z,68.43
2022-11-30T08:34:46.653Z,68.44
2022-11-30T08:37:15.017Z,68.71
2022-11-30T08:39:44.207Z,68.32
2022-11-30T08:42:12.271Z,68.18
2022-11-30T08:44:39.909Z,68.23
2022-11-30T08:47:08.102Z,68.48
2022-11-30T08:49:35.853Z,68.23
2022-11-30T08:52:19.599Z,68.36
2022-11-30T08:54:49.491Z,68.31
2022-11-30T08:57:19.164Z,68.25
2022-11-30T08:59:47.278Z,68.50
2022-11-30T09:02:18.846Z,68.35
2022-11-30T09:04:51.068Z,68.93
2022-11-30T09:07:19.952Z,68.58
2022-11-30T09:09:49.758Z,68.59
2022-11-30T09:12:17.508Z,68.39
2022-11-30T09:14:50.803Z,68.61
2022-11-30T09:17:22.044Z,68.63
2022-11-30T09:19:50.529Z,68.77
2022-11-30T09:22:18.327Z,68.68
2022-11-30T09:24:46.374Z,68.59
2022-11-30T09:27:16.030Z,68.48
2022-11-30T09:29:43.864Z,68.72
2022-11-30T09:32:11.881Z,68.67
2022-11-30T09:34:39.644Z,68.21
2022-11-30T09:37:07.503Z,68.02
2022-11-30T09:39:35.276Z,68.79
2022-11-30T09:42:33.493Z,68.38
2022-11-30T09:45:07.760Z,67.88
2022-11-30T09:48:00.073Z,68.26
2022-11-30T09:50:32.994Z,68.13
2022-11-30T09:53:06.734Z,68.05
2022-11-30T09:55:40.383Z,67.92
2022-11-30T09:58:24.483Z,67.83
2022-11-30T10:00:52.370Z,67.51
2022-11-30T10:03:23.629Z,67.90
2022-11-30T10:05:58.029Z,67.85
2022-11-30T10:08:50.836Z,67.82
2022-11-30T10:11:33.808Z,67.88
2022-11-30T10:14:18.112Z,67.46
2022-11-30T10:16:58.376Z,67.41
2022-11-30T10:19:43.123Z,67.60
2022-11-30T10:22:22.199Z,67.45
2022-11-30T10:25:10.162Z,67.68
2022-11-30T10:27:50.122Z,67.73
2022-11-30T10:30:22.603Z,67.78
2022-11-30T10:32:54.431Z,67.67
2022-11-30T10:35:31.841Z,67.42
2022-11-30T10:38:04.555Z,68.07
2022-11-30T10:40:39.221Z,67.55
2022-11-30T10:43:18.804Z,67.23
2022-11-30T10:45:50.342Z,68.00
2022-11-30T10:48:25.801Z,67.61
2022-11-30T10:50:54.673Z,67.85
2022-11-30T10:53:23.325Z,67.78
2022-11-30T10:55:59.890Z,67.94
2022-11-30T10:58:32.920Z,67.88
2022-11-30T11:01:06.849Z,67.55
2022-11-30T11:03:35.600Z,67.42
2022-11-30T11:06:15.862Z,67.13
2022-11-30T11:08:46.827Z,67.01
2022-11-30T11:11:36.880Z,67.18
2022-11-30T11:14:16.088Z,67.09
2022-11-30T11:16:53.836Z,67.13
2022-11-30T11:19:34.847Z,66.56
2022-11-30T11:22:05.808Z,66.80
2022-11-30T11:24:35.762Z,66.54
2022-11-30T11:27:03.990Z,66.46
2022-11-30T11:29:34.958Z,66.30
2022-11-30T11:32:25.913Z,66.65
2022-11-30T11:34:54.129Z,66.47
2022-11-30T11:37:26.705Z,66.25
2022-11-30T11:40:04.040Z,66.25
2022-11-30T11:42:35.551Z,66.69
2022-11-30T11:45:08.101Z,66.76
2022-11-30T11:47:41.423Z,66.84
2022-11-30T11:51:04.836Z,66.52
2022-11-30T11:53:25.553Z,66.39
2022-11-30T11:55:58.818Z,66.54
2022-11-30T11:58:36.460Z,66.97
2022-11-30T12:01:38.745Z,66.54
2022-11-30T12:04:14.283Z,66.85
2022-11-30T12:06:46.161Z,66.71
2022-11-30T12:09:19.170Z,66.70
2022-11-30T12:11:50.301Z,67.01
2022-11-30T12:14:19.933Z,66.25
2022-11-30T12:17:05.783Z,65.93
2022-11-30T12:19:39.597Z,66.23
2022-11-30T12:22:20.785Z,66.13
2022-11-30T12:25:00.126Z,66.32
2022-11-30T12:27:46.873Z,66.58
2022-11-30T12:30:23.580Z,66.48
2022-11-30T12:33:12.009Z,66.38
2022-11-30T12:35:49.824Z,66.24
2022-11-30T12:38:31.681Z,66.35
2022-11-30T12:41:08.568Z,66.18
2022-11-30T12:43:46.855Z,65.88
2022-11-30T12:46:24.796Z,66.31
2022-11-30T12:49:11.018Z,66.78
2022-11-30T12:51:47.953Z,66.56
2022-11-30T12:54:22.574Z,65.95
2022-11-30T12:56:56.489Z,66.38
2022-11-30T12:59:32.437Z,66.23
2022-11-30T13:02:17.299Z,66.13
2022-11-30T13:04:51.866Z,65.73
2022-11-30T13:07:29.087Z,65.35
2022-11-30T13:10:01.584Z,65.31
2022-11-30T13:12:36.286Z,65.28
2022-11-30T13:15:14.008Z,64.75
2022-11-30T13:17:44.331Z,65.01
2022-11-30T13:20:21.530Z,64.89
2022-11-30T13:22:56.948Z,65.58
2022-11-30T13:26:06.312Z,65.67
2022-11-30T13:28:32.837Z,65.55
2022-11-30T13:31:06.581Z,65.65
2022-11-30T13:33:48.705Z,65.81
2022-11-30T13:36:28.824Z,65.58
2022-11-30T13:39:19.987Z,65.82
2022-11-30T13:41:50.260Z,65.89
2022-11-30T13:44:27.132Z,65.91
2022-11-30T13:46:55.082Z,65.83
2022-11-30T13:49:24.730Z,65.09
2022-11-30T13:52:19.996Z,65.45
2022-11-30T13:54:45.146Z,65.08
2022-11-30T13:57:57.982Z,64.74
2022-11-30T14:00:49.751Z,64.81
2022-11-30T14:03:25.631Z,64.29
2022-11-30T14:05:54.872Z,64.50
2022-11-30T14:08:40.246Z,64.48
2022-11-30T14:11:42.037Z,64.59
2022-11-30T14:14:45.354Z,65.00
2022-11-30T14:17:20.632Z,64.03
2022-11-30T14:19:52.958Z,64.25
2022-11-30T14:22:21.221Z,64.35
2022-11-30T14:24:50.736Z,63.84
2022-11-30T14:27:22.143Z,64.13
2022-11-30T14:29:53.632Z,64.60
2022-11-30T14:32:36.238Z,64.86
2022-11-30T14:35:13.082Z,64.83
2022-11-30T14:38:01.515Z,64.78
2022-11-30T14:40:31.456Z,64.68
2022-11-30T14:43:01.617Z,64.66
2022-11-30T14:45:33.923Z,65.04
2022-11-30T14:48:13.943Z,64.94
2022-11-30T14:50:44.711Z,65.36
2022-11-30T14:53:27.329Z,65.01
2022-11-30T14:56:01.073Z,65.04
2022-11-30T14:58:37.477Z,65.02
2022-11-30T15:01:18.565Z,64.91
2022-11-30T15:03:50.870Z,65.39
2022-11-30T15:06:21.857Z,65.02
2022-11-30T15:08:53.132Z,65.04
2022-11-30T15:11:21.612Z,65.13
2022-11-30T15:13:52.552Z,65.06
2022-11-30T15:16:22.649Z,65.30
2022-11-30T15:18:53.472Z,65.70
2022-11-30T15:21:24.068Z,65.24
2022-11-30T15:23:53.279Z,65.11
2022-11-30T15:29:00.386Z,65.44
2022-11-30T15:31:33.928Z,65.57
2022-11-30T15:34:03.737Z,65.54
2022-11-30T15:36:36.349Z,65.41
2022-11-30T15:39:07.988Z,65.69
2022-11-30T15:41:37.628Z,65.61
2022-11-30T15:44:06.000Z,65.69
2022-11-30T15:46:39.797Z,65.61
2022-11-30T15:53:04.419Z,66.02
2022-11-30T15:55:52.743Z,65.96
2022-11-30T15:58:31.265Z,65.47
2022-11-30T16:01:10.655Z,65.45
2022-11-30T16:04:07.147Z,65.84
2022-11-30T16:06:52.897Z,65.71
2022-11-30T16:09:27.073Z,65.88
2022-11-30T16:11:58.760Z,65.81
2022-11-30T16:14:31.138Z,65.87
2022-11-30T16:17:04.161Z,66.07
2022-11-30T16:19:37.739Z,66.14
2022-11-30T16:22:10.761Z,66.21
2022-11-30T16:24:43.074Z,66.24
2022-11-30T16:27:37.545Z,66.04
2022-11-30T16:30:07.064Z,66.13
2022-11-30T16:32:35.174Z,66.18
2022-11-30T16:35:03.805Z,66.00
2022-11-30T16:37:34.647Z,66.33
2022-11-30T16:40:11.511Z,66.11
2022-11-30T16:42:39.381Z,66.01
2022-11-30T16:45:14.627Z,66.29
2022-11-30T16:47:43.952Z,66.02
2022-11-30T16:50:12.929Z,66.17
2022-11-30T16:52:41.689Z,66.21
2022-11-30T16:55:19.275Z,66.49
2022-11-30T16:57:48.520Z,66.24
2022-11-30T17:00:21.021Z,65.97
2022-11-30T17:02:56.931Z,66.32
2022-11-30T17:05:25.343Z,66.26
2022-11-30T17:07:53.251Z,66.39
2022-11-30T17:10:23.399Z,66.51
2022-11-30T17:12:51.768Z,66.56
2022-11-30T17:15:21.510Z,66.51
2022-11-30T17:17:49.936Z,66.63
2022-11-30T17:20:19.121Z,66.69
2022-11-30T17:22:49.347Z,66.34
2022-11-30T17:25:19.634Z,66.83
2022-11-30T17:27:50.813Z,66.88
2022-11-30T17:30:20.734Z,66.85
2022-11-30T17:32:48.882Z,67.00
2022-11-30T17:35:17.799Z,67.01
2022-11-30T17:37:46.989Z,66.73
2022-11-30T17:40:17.888Z,66.92
2022-11-30T17:42:47.179Z,66.99
2022-11-30T17:45:19.020Z,67.30
2022-11-30T17:47:47.093Z,66.80
2022-11-30T17:50:16.338Z,67.26
2022-11-30T17:52:44.394Z,67.29
2022-11-30T17:55:13.296Z,67.37
2022-11-30T17:57:41.988Z,67.31
2022-11-30T18:00:10.936Z,67.44
2022-11-30T18:02:40.735Z,67.40
2022-11-30T18:09:00.902Z,67.77
2022-11-30T18:11:32.140Z,68.19
2022-11-30T18:14:03.600Z,67.90
2022-11-30T18:16:35.507Z,68.07
2022-11-30T18:19:11.965Z,67.60
2022-11-30T18:21:41.931Z,68.40
2022-11-30T18:24:11.136Z,68.13
2022-11-30T18:26:40.589Z,68.71
2022-11-30T18:29:10.141Z,68.88
2022-11-30T18:31:38.909Z,68.78
2022-11-30T18:34:09.324Z,68.76
2022-11-30T18:36:37.699Z,69.01
2022-11-30T18:39:06.300Z,68.80
2022-11-30T18:41:35.065Z,68.94
2022-11-30T18:44:03.786Z,68.86
2022-11-30T18:46:32.887Z,69.01
2022-11-30T18:49:01.981Z,68.61
2022-11-30T18:51:32.585Z,68.61
2022-11-30T18:54:02.610Z,68.72
2022-11-30T18:56:32.861Z,68.60
2022-11-30T18:59:03.584Z,68.47
2022-11-30T19:01:32.928Z,68.64
2022-11-30T19:04:03.065Z,68.55
2022-11-30T19:06:35.317Z,68.78
2022-11-30T19:09:07.416Z,68.59
2022-11-30T19:11:35.950Z,68.33
2022-11-30T19:14:04.895Z,68.22
2022-11-30T19:16:37.389Z,68.30
2022-11-30T19:19:07.935Z,68.53
2022-11-30T19:21:37.364Z,68.50
2022-11-30T19:24:05.607Z,68.48
2022-11-30T19:26:33.512Z,68.69
2022-11-30T19:29:01.599Z,68.08
2022-11-30T19:31:29.655Z,68.12
2022-11-30T19:33:58.360Z,68.50
2022-11-30T19:36:30.033Z,68.59
2022-11-30T19:39:01.444Z,68.57
2022-11-30T19:41:30.082Z,68.68
2022-11-30T19:44:03.796Z,68.57
2022-11-30T19:46:34.655Z,68.84
2022-11-30T19:49:05.359Z,68.48
2022-11-30T19:51:33.465Z,68.77
2022-11-30T19:54:03.777Z,68.69
2022-11-30T19:56:34.734Z,68.63
2022-11-30T19:59:06.379Z,68.61
2022-11-30T20:01:35.442Z,68.01
2022-11-30T20:04:04.319Z,68.40
2022-11-30T20:06:34.068Z,68.12
2022-11-30T20:09:06.344Z,68.42
2022-11-30T20:11:35.428Z,68.42
2022-11-30T20:14:03.734Z,68.64
2022-11-30T20:16:32.082Z,68.67
2022-11-30T20:19:02.822Z,68.46
2022-11-30T20:21:33.099Z,68.18
2022-11-30T20:24:06.385Z,68.52
2022-11-30T20:26:36.239Z,68.18
2022-11-30T20:29:06.191Z,68.02
2022-11-30T20:31:37.466Z,68.22
2022-11-30T20:34:06.163Z,67.96
2022-11-30T20:36:34.336Z,68.21
2022-11-30T20:39:04.553Z,67.69
2022-11-30T20:41:32.641Z,68.16
2022-11-30T20:44:02.130Z,67.41
2022-11-30T20:46:32.307Z,67.66
2022-11-30T20:49:01.987Z,67.64
2022-11-30T20:51:33.269Z,67.67
2022-11-30T20:54:06.717Z,68.04
2022-11-30T20:56:37.512Z,68.30
2022-11-30T20:59:08.168Z,68.44
2022-11-30T21:01:36.840Z,68.06
2022-11-30T21:04:06.014Z,67.82
2022-11-30T21:06:36.839Z,68.11
2022-11-30T21:09:07.809Z,67.88
2022-11-30T21:11:35.725Z,67.44
2022-11-30T21:14:04.258Z,67.67
2022-11-30T21:16:32.371Z,67.46
2022-11-30T21:20:17.965Z,67.69
2022-11-30T21:29:42.820Z,67.50
2022-11-30T21:32:56.994Z,67.54
2022-11-30T21:35:27.746Z,66.78
2022-11-30T21:38:01.351Z,66.80
2022-11-30T21:40:35.961Z,66.87
2022-11-30T21:53:02.131Z,66.15
2022-11-30T21:58:53.232Z,66.67
2022-11-30T22:01:24.489Z,66.79
2022-11-30T22:07:56.352Z,66.77
2022-11-30T22:10:36.286Z,67.04
2022-11-30T22:16:13.505Z,67.20
2022-11-30T22:33:23.370Z,67.52
2022-11-30T22:36:11.089Z,67.76
